»·PEaware :: N299X KTEX-KDRO

N299X :: KTEX-KDRO

FLIGHT INFORMATION

Flight Status: Arrived
Operator: Privately registered:
United States
More flights under this callsign
Pilot: Russell T. (852)
Aircraft: BEECH AIRCRAFT BONANZA
(BE36)
More flights by this aircraft type
Origin: KTEX Telluride Regl
United States
Destination: KDRO Durango-La Plata Co
United States
More flights between these airports :: More routes between these airports
Route: ETL MANCA
File this flight plan on PilotEdge
Remarks:
Altitude:
(Current/Filed)
13,500ft
Speed:
(Current/Filed)
150kts
Departed: 21-May-23 02:05 PM
Arrived: 21-May-23 02:44 PM
Distance/Time
Traveled:
48nm/0:39
Distance/Time
To Go:
Arrived

Flight Plot

Page will automatically refresh every two minutes.

Flight plan parsing failed; only flown route is shown


Map Options




Map Legend


Flown Route
Filed Route
Departure Airport
Arrival Airport
Navaid (VOR, NDB)
Fix

Horizontal Profiles

Position Reports

Time Latitude Longitude Heading Altitude Ground
Speed
21-May-23 13:58 37.953859 -107.900970 12 9052ft 0kts
21-May-23 13:59 37.953859 -107.900970 12 9052ft 0kts
21-May-23 14:00 37.953936 -107.901011 304 9052ft 5kts
21-May-23 14:01 37.952668 -107.901318 182 9045ft 9kts
21-May-23 14:02 37.951866 -107.898866 105 9060ft 10kts
21-May-23 14:03 37.951418 -107.897421 291 9067ft 5kts
21-May-23 14:04 37.955215 -107.915944 286 9159ft 96kts
21-May-23 14:05 37.966763 -107.961232 286 9169ft 162kts
21-May-23 14:06 37.991946 -108.006836 313 9008ft 184kts
21-May-23 14:07 38.003956 -108.049244 289 10810ft 120kts
21-May-23 14:08 38.015057 -108.089074 288 11655ft 121kts
21-May-23 14:09 38.026234 -108.129666 289 12464ft 122kts
21-May-23 14:10 38.037536 -108.170672 288 13216ft 124kts
21-May-23 14:11 38.050176 -108.217201 288 13460ft 152kts
21-May-23 14:12 38.053217 -108.269539 243 13594ft 161kts
21-May-23 14:13 38.022847 -108.311474 238 13704ft 163kts
21-May-23 14:14 38.004244 -108.364205 247 13753ft 164kts
21-May-23 14:15 37.986046 -108.417437 247 13811ft 164kts
21-May-23 14:16 37.956942 -108.455844 175 13865ft 166kts
21-May-23 14:17 37.911938 -108.442508 167 13937ft 166kts
21-May-23 14:18 37.866831 -108.428965 167 14001ft 166kts
21-May-23 14:19 37.821667 -108.415447 167 14073ft 166kts
21-May-23 14:20 37.776730 -108.402007 167 14150ft 166kts
21-May-23 14:21 37.731930 -108.388640 167 14230ft 165kts
21-May-23 14:22 37.687199 -108.375278 167 14289ft 165kts
21-May-23 14:24 37.642231 -108.361878 167 14325ft 165kts
21-May-23 14:25 37.597301 -108.348510 167 14329ft 165kts
21-May-23 14:26 37.552486 -108.335229 168 14366ft 165kts
21-May-23 14:27 37.507911 -108.321938 167 14378ft 165kts
21-May-23 14:28 37.461269 -108.308000 167 13875ft 187kts
21-May-23 14:29 37.408481 -108.292527 167 12829ft 199kts
21-May-23 14:30 37.354395 -108.276544 167 11761ft 201kts
21-May-23 14:31 37.299658 -108.260363 167 10689ft 201kts
21-May-23 14:32 37.264826 -108.214887 106 10228ft 186kts
21-May-23 14:33 37.252145 -108.161858 107 10221ft 137kts
21-May-23 14:34 37.241498 -108.118659 107 10228ft 122kts
21-May-23 14:35 37.231856 -108.079262 105 10226ft 113kts
21-May-23 14:36 37.224214 -108.041274 115 10225ft 111kts
21-May-23 14:37 37.214439 -108.011595 111 9838ft 89kts
21-May-23 14:38 37.199715 -107.974338 119 9405ft 126kts
21-May-23 14:39 37.179386 -107.934289 126 8634ft 140kts
21-May-23 14:40 37.163803 -107.890739 107 8082ft 135kts
21-May-23 14:41 37.157489 -107.845489 108 7760ft 124kts
21-May-23 14:42 37.148868 -107.802599 108 7505ft 124kts
21-May-23 14:43 37.140950 -107.764257 47 6817ft 96kts
21-May-23 14:44 37.150437 -107.755131 29 6654ft 4kts
21-May-23 14:44 37.150544 -107.755056 29 6657ft 0kts
21-May-23 14:46 37.150612 -107.754964 50 6655ft 6kts
21-May-23 14:47 37.152899 -107.752641 37 6665ft 13kts
21-May-23 14:48 37.155499 -107.750662 336 6672ft 5kts
21-May-23 14:49 37.157906 -107.749433 37 6677ft 14kts
21-May-23 14:49 37.160829 -107.746750 36 6688ft 12kts
21-May-23 14:50 37.163439 -107.745257 39 6692ft 11kts
21-May-23 14:52 37.163172 -107.746302 221 6692ft 9kts
21-May-23 14:53 37.162241 -107.747827 265 6689ft 0kts
21-May-23 14:54 37.162217 -107.747926 241 6689ft 0kts
21-May-23 14:54 37.162217 -107.747926 241 6689ft 0kts
21-May-23 14:55 37.162217 -107.747926 241 6689ft 0kts
21-May-23 14:56 37.162217 -107.747926 241 6689ft 0kts
21-May-23 14:57 37.162217 -107.747926 241 6689ft 0kts

Navigation Log

Ident Type
Flight plan parsing failed, navigation log unavailable